createdAt,value
2019-05-03T00:01:52.809Z,8.70
2019-05-03T00:04:23.479Z,8.60
2019-05-03T00:06:53.966Z,8.50
2019-05-03T00:09:24.701Z,8.50
2019-05-03T00:11:55.114Z,8.40
2019-05-03T00:14:26.009Z,8.40
2019-05-03T00:16:56.594Z,8.40
2019-05-03T00:19:27.225Z,8.40
2019-05-03T00:21:57.652Z,8.30
2019-05-03T00:24:28.078Z,8.30
2019-05-03T00:26:59.427Z,8.30
2019-05-03T00:29:29.956Z,8.20
2019-05-03T00:32:01.933Z,8.20
2019-05-03T00:34:37.614Z,8.20
2019-05-03T00:37:12.524Z,8.20
2019-05-03T00:39:57.431Z,8.20
2019-05-03T00:47:26.907Z,8.20
2019-05-03T00:49:57.342Z,8.20
2019-05-03T00:52:27.752Z,8.20
2019-05-03T00:54:58.181Z,8.20
2019-05-03T00:57:32.092Z,8.30
2019-05-03T01:00:02.449Z,8.20
2019-05-03T01:02:32.967Z,8.30
2019-05-03T01:05:03.733Z,8.30
2019-05-03T01:07:34.214Z,8.30
2019-05-03T01:10:06.302Z,8.30
2019-05-03T01:12:36.829Z,8.30
2019-05-03T01:15:09.759Z,8.30
2019-05-03T01:17:41.986Z,8.30
2019-05-03T01:20:12.919Z,8.40
2019-05-03T01:22:43.331Z,8.40
2019-05-03T01:25:13.860Z,8.40
2019-05-03T01:27:44.398Z,8.30
2019-05-03T01:30:14.920Z,8.40
2019-05-03T01:32:45.551Z,8.30
2019-05-03T01:35:16.080Z,8.20
2019-05-03T01:37:46.508Z,8.20
2019-05-03T01:40:17.038Z,8.10
2019-05-03T01:42:47.462Z,8.00
2019-05-03T01:45:17.996Z,8.00
2019-05-03T01:48:10.231Z,7.90
2019-05-03T01:50:47.110Z,7.90
2019-05-03T01:53:18.933Z,7.80
2019-05-03T01:55:52.696Z,7.80
2019-05-03T01:58:23.922Z,7.70
2019-05-03T02:01:02.834Z,7.70
2019-05-03T02:03:41.866Z,7.60
2019-05-03T02:06:12.394Z,7.60
2019-05-03T02:08:42.839Z,7.60
2019-05-03T02:11:13.362Z,7.60
2019-05-03T02:13:43.792Z,7.60
2019-05-03T02:16:14.213Z,7.60
2019-05-03T02:18:44.691Z,7.50
2019-05-03T02:21:15.334Z,7.50
2019-05-03T02:23:45.808Z,7.50
2019-05-03T02:26:16.335Z,7.40
2019-05-03T02:28:46.863Z,7.40
2019-05-03T02:31:18.319Z,7.40
2019-05-03T02:33:48.746Z,7.40
2019-05-03T02:36:19.167Z,7.40
2019-05-03T02:38:49.683Z,7.40
2019-05-03T02:41:22.522Z,7.40
2019-05-03T02:43:56.035Z,7.30
2019-05-03T02:46:47.500Z,7.20
2019-05-03T02:49:36.974Z,7.20
2019-05-03T02:52:07.593Z,7.20
2019-05-03T02:54:38.030Z,7.30
2019-05-03T02:57:08.447Z,7.40
2019-05-03T02:59:38.886Z,7.50
2019-05-03T03:02:09.610Z,7.60
2019-05-03T03:04:40.291Z,7.70
2019-05-03T03:07:11.284Z,7.80
2019-05-03T03:09:45.117Z,7.90
2019-05-03T03:12:15.515Z,8.00
2019-05-03T03:14:48.002Z,8.00
2019-05-03T03:17:21.572Z,8.00
2019-05-03T03:19:55.281Z,8.00
2019-05-03T03:22:27.363Z,8.10
2019-05-03T03:24:59.891Z,8.10
2019-05-03T03:27:32.591Z,8.10
2019-05-03T03:30:31.321Z,8.10
2019-05-03T03:33:08.619Z,8.20
2019-05-03T03:35:38.228Z,8.20
2019-05-03T03:38:09.653Z,8.30
2019-05-03T03:40:41.394Z,8.30
2019-05-03T03:43:15.554Z,8.30
2019-05-03T03:45:45.962Z,8.30
2019-05-03T03:48:19.796Z,8.30
2019-05-03T03:50:52.167Z,8.30
2019-05-03T03:53:26.347Z,8.30
2019-05-03T03:55:57.490Z,8.30
2019-05-03T03:58:27.935Z,8.20
2019-05-03T04:00:59.590Z,8.20
2019-05-03T04:03:30.115Z,8.10
2019-05-03T04:06:00.893Z,8.00
2019-05-03T04:08:31.583Z,8.00
2019-05-03T04:11:06.060Z,7.80
2019-05-03T04:13:37.503Z,7.80
2019-05-03T04:16:26.036Z,7.70
2019-05-03T04:19:07.081Z,7.70
2019-05-03T04:21:37.657Z,7.70
2019-05-03T04:24:08.328Z,7.60
2019-05-03T04:26:39.081Z,7.60
2019-05-03T04:29:09.716Z,7.50
2019-05-03T04:31:40.141Z,7.50
2019-05-03T04:34:10.873Z,7.40
2019-05-03T04:36:41.302Z,7.40
2019-05-03T04:39:11.730Z,7.40
2019-05-03T04:41:42.156Z,7.40
2019-05-03T04:44:15.304Z,7.30
2019-05-03T04:46:46.499Z,7.30
2019-05-03T04:49:16.814Z,7.30
2019-05-03T04:51:47.248Z,7.30
2019-05-03T04:54:21.911Z,7.30
2019-05-03T04:56:52.387Z,7.30
2019-05-03T04:59:25.283Z,7.30
2019-05-03T05:01:55.995Z,7.40
2019-05-03T05:04:28.288Z,7.30
2019-05-03T05:06:58.883Z,7.20
2019-05-03T05:09:29.356Z,7.30
2019-05-03T05:11:59.772Z,7.30
2019-05-03T05:14:30.198Z,7.30
2019-05-03T05:17:00.626Z,7.20
2019-05-03T05:19:38.018Z,7.30
2019-05-03T05:22:10.335Z,7.30
2019-05-03T05:24:40.959Z,7.30
2019-05-03T05:27:22.767Z,7.50
2019-05-03T05:29:55.432Z,7.60
2019-05-03T05:32:25.817Z,7.70
2019-05-03T05:34:56.235Z,7.70
2019-05-03T05:37:26.773Z,7.70
2019-05-03T05:39:57.216Z,7.70
2019-05-03T05:42:27.627Z,7.70
2019-05-03T05:44:58.054Z,7.70
2019-05-03T05:47:37.054Z,7.70
2019-05-03T05:50:14.968Z,7.70
2019-05-03T05:52:45.516Z,7.80
2019-05-03T05:55:27.002Z,7.90
2019-05-03T05:58:08.158Z,8.00
2019-05-03T06:01:05.511Z,8.10
2019-05-03T06:03:36.032Z,8.20
2019-05-03T06:06:08.871Z,8.40
2019-05-03T06:09:00.786Z,8.50
2019-05-03T06:11:45.355Z,8.60
2019-05-03T06:14:19.618Z,8.80
2019-05-03T06:17:05.477Z,8.90
2019-05-03T06:20:05.401Z,9.00
2019-05-03T06:22:44.824Z,9.10
2019-05-03T06:25:26.877Z,9.20
2019-05-03T06:27:57.863Z,9.30
2019-05-03T06:30:37.996Z,9.40
2019-05-03T06:33:08.422Z,9.60
2019-05-03T06:35:38.851Z,9.80
2019-05-03T06:38:09.382Z,9.90
2019-05-03T06:40:40.145Z,10.10
2019-05-03T06:43:12.870Z,10.30
2019-05-03T06:45:46.597Z,10.40
2019-05-03T06:48:17.230Z,10.60
2019-05-03T06:50:47.051Z,10.70
2019-05-03T06:53:17.491Z,10.70
2019-05-03T06:55:48.575Z,10.80
2019-05-03T06:58:30.401Z,11.00
2019-05-03T07:01:20.090Z,11.30
2019-05-03T07:04:08.744Z,11.60
2019-05-03T07:09:51.171Z,12.30
2019-05-03T07:12:21.602Z,13.50
2019-05-03T07:14:52.023Z,14.20
2019-05-03T07:17:22.453Z,15.50
2019-05-03T07:19:54.604Z,16.10
2019-05-03T07:22:25.254Z,16.10
2019-05-03T07:24:55.782Z,17.10
2019-05-03T07:27:26.270Z,17.80
2019-05-03T07:29:56.839Z,18.20
2019-05-03T07:32:27.576Z,17.80
2019-05-03T07:34:58.002Z,17.30
2019-05-03T07:37:28.431Z,16.60
2019-05-03T07:39:58.957Z,16.40
2019-05-03T07:42:29.426Z,16.30
2019-05-03T07:44:59.901Z,16.70
2019-05-03T07:47:30.341Z,17.90
2019-05-03T07:50:01.803Z,20.00
2019-05-03T07:52:32.222Z,21.30
2019-05-03T07:55:04.616Z,20.80
2019-05-03T07:57:52.322Z,20.20
2019-05-03T08:00:25.446Z,19.50
2019-05-03T08:02:56.044Z,18.70
2019-05-03T08:05:26.514Z,18.60
2019-05-03T08:07:57.106Z,19.90
2019-05-03T08:10:28.554Z,21.90
2019-05-03T08:12:59.130Z,23.30
2019-05-03T08:15:29.628Z,23.80
2019-05-03T08:18:00.030Z,23.70
2019-05-03T08:20:30.475Z,25.20
2019-05-03T08:23:00.955Z,27.20
2019-05-03T08:25:31.423Z,28.50
2019-05-03T08:28:01.852Z,29.10
2019-05-03T08:30:44.452Z,29.60
2019-05-03T08:33:46.035Z,30.60
2019-05-03T08:36:16.563Z,31.50
2019-05-03T08:38:48.208Z,31.70
2019-05-03T08:41:56.119Z,31.10
2019-05-03T08:44:26.613Z,29.80
2019-05-03T08:46:57.323Z,27.10
2019-05-03T08:49:28.110Z,25.50
2019-05-03T08:51:58.536Z,23.90
2019-05-03T08:54:28.964Z,22.90
2019-05-03T08:56:59.393Z,21.60
2019-05-03T08:59:32.746Z,20.50
2019-05-03T09:02:03.687Z,20.10
2019-05-03T09:04:38.125Z,19.80
2019-05-03T09:07:08.311Z,19.80
2019-05-03T09:09:47.760Z,20.00
2019-05-03T09:12:18.233Z,21.50
2019-05-03T09:14:48.675Z,23.70
2019-05-03T09:17:19.078Z,25.10
2019-05-03T09:19:49.515Z,27.10
2019-05-03T09:22:19.941Z,28.00
2019-05-03T09:24:51.714Z,28.70
2019-05-03T09:27:22.128Z,29.80
2019-05-03T09:29:55.655Z,31.70
2019-05-03T09:32:25.774Z,31.20
2019-05-03T09:34:56.376Z,29.80
2019-05-03T09:37:27.012Z,27.60
2019-05-03T09:39:57.437Z,25.80
2019-05-03T09:42:27.865Z,24.50
2019-05-03T09:44:58.292Z,23.40
2019-05-03T09:47:29.125Z,24.00
2019-05-03T09:50:02.043Z,26.10
2019-05-03T09:52:31.665Z,26.20
2019-05-03T09:55:05.254Z,24.70
2019-05-03T09:57:35.749Z,23.20
2019-05-03T10:00:06.919Z,23.10
2019-05-03T10:02:37.467Z,23.90
2019-05-03T10:05:10.586Z,23.70
2019-05-03T10:07:41.188Z,23.10
2019-05-03T10:10:11.879Z,22.00
2019-05-03T10:12:42.304Z,21.20
2019-05-03T10:15:15.240Z,21.30
2019-05-03T10:17:55.330Z,21.70
2019-05-03T10:20:27.512Z,21.40
2019-05-03T10:23:00.511Z,20.90
2019-05-03T10:25:30.926Z,20.40
2019-05-03T10:28:01.359Z,22.10
2019-05-03T10:30:32.811Z,23.10
2019-05-03T10:33:09.574Z,23.20
2019-05-03T10:35:40.522Z,22.80
2019-05-03T10:38:11.152Z,22.80
2019-05-03T10:40:41.577Z,22.40
2019-05-03T10:43:12.559Z,22.20
2019-05-03T10:45:44.992Z,21.60
2019-05-03T10:48:15.643Z,20.70
2019-05-03T10:50:46.361Z,20.20
2019-05-03T10:53:32.248Z,19.00
2019-05-03T10:56:23.277Z,18.70
2019-05-03T10:59:02.596Z,18.30
2019-05-03T11:01:41.829Z,18.10
2019-05-03T11:04:12.349Z,18.20
2019-05-03T11:06:42.867Z,18.40
2019-05-03T11:09:15.345Z,18.70
2019-05-03T11:11:45.666Z,19.00
2019-05-03T11:14:16.225Z,19.30
2019-05-03T11:16:46.641Z,19.40
2019-05-03T11:19:18.091Z,19.70
2019-05-03T11:21:48.520Z,20.30
2019-05-03T11:24:18.947Z,20.50
2019-05-03T11:26:50.948Z,20.90
2019-05-03T11:29:21.511Z,21.40
2019-05-03T11:32:26.069Z,22.40
2019-05-03T11:35:06.279Z,24.50
2019-05-03T11:38:01.641Z,25.70
2019-05-03T11:40:32.063Z,25.00
2019-05-03T11:43:04.647Z,24.00
2019-05-03T11:45:35.526Z,23.80
2019-05-03T11:48:06.210Z,24.10
2019-05-03T11:50:37.662Z,24.40
2019-05-03T11:53:08.097Z,23.30
2019-05-03T11:55:40.061Z,22.40
2019-05-03T11:58:21.870Z,22.40
2019-05-03T12:01:16.186Z,22.00
2019-05-03T12:03:46.180Z,21.30
2019-05-03T12:06:16.844Z,21.40
2019-05-03T12:08:47.491Z,22.00
2019-05-03T12:11:18.048Z,22.90
2019-05-03T12:14:01.443Z,24.30
2019-05-03T12:16:26.802Z,25.10
2019-05-03T12:18:54.253Z,25.40
2019-05-03T12:21:27.408Z,25.50
2019-05-03T12:23:57.529Z,25.00
2019-05-03T12:26:40.609Z,24.00
2019-05-03T12:29:00.556Z,23.90
2019-05-03T12:31:38.012Z,24.40
2019-05-03T12:34:05.443Z,25.40
2019-05-03T12:36:38.918Z,26.50
2019-05-03T12:39:23.340Z,26.60
2019-05-03T12:41:40.770Z,25.70
2019-05-03T12:44:15.262Z,25.50
2019-05-03T12:46:46.007Z,25.00
2019-05-03T12:49:16.465Z,24.50
2019-05-03T12:51:46.893Z,23.20
2019-05-03T12:54:17.343Z,22.50
2019-05-03T12:56:47.753Z,21.80
2019-05-03T12:59:37.123Z,21.20
2019-05-03T13:02:15.378Z,21.10
2019-05-03T13:04:45.655Z,20.50
2019-05-03T13:07:31.851Z,20.30
2019-05-03T13:10:02.379Z,20.20
2019-05-03T13:12:34.635Z,20.30
2019-05-03T13:15:05.091Z,20.50
2019-05-03T13:17:39.907Z,21.80
2019-05-03T13:20:15.459Z,23.70
2019-05-03T13:22:46.064Z,25.70
2019-05-03T13:25:16.617Z,26.70
2019-05-03T13:27:48.417Z,26.60
2019-05-03T13:30:18.902Z,26.20
2019-05-03T13:32:49.332Z,26.00
2019-05-03T13:35:19.754Z,26.00
2019-05-03T13:37:50.388Z,25.40
2019-05-03T13:40:20.858Z,25.20
2019-05-03T13:42:57.195Z,24.50
2019-05-03T13:45:24.713Z,23.50
2019-05-03T13:47:55.425Z,22.90
2019-05-03T13:50:25.904Z,22.80
2019-05-03T13:52:56.329Z,23.00
2019-05-03T13:55:26.757Z,23.20
2019-05-03T13:57:57.184Z,23.20
2019-05-03T14:00:28.635Z,23.40
2019-05-03T14:02:59.061Z,23.70
2019-05-03T14:05:29.479Z,24.20
2019-05-03T14:07:59.985Z,24.20
2019-05-03T14:10:30.599Z,23.30
2019-05-03T14:13:02.100Z,22.50
2019-05-03T14:15:34.628Z,22.00
2019-05-03T14:18:06.003Z,21.60
2019-05-03T14:21:04.979Z,21.40
2019-05-03T14:23:53.779Z,21.30
2019-05-03T14:26:24.634Z,21.20
2019-05-03T14:28:55.247Z,21.10
2019-05-03T14:31:25.776Z,21.10
2019-05-03T14:33:56.209Z,20.80
2019-05-03T14:36:28.064Z,20.60
2019-05-03T14:38:58.596Z,20.20
2019-05-03T14:41:29.066Z,19.80
2019-05-03T14:43:59.549Z,19.70
2019-05-03T14:46:33.141Z,19.60
2019-05-03T14:49:02.045Z,19.70
2019-05-03T14:51:32.469Z,19.90
2019-05-03T14:54:04.898Z,20.20
2019-05-03T14:56:49.919Z,20.30
2019-05-03T14:59:45.294Z,20.10
2019-05-03T15:02:25.278Z,19.60
2019-05-03T15:05:16.182Z,19.10
2019-05-03T15:07:46.924Z,18.60
2019-05-03T15:10:17.886Z,18.10
2019-05-03T15:12:48.376Z,17.80
2019-05-03T15:15:20.304Z,17.60
2019-05-03T15:17:50.775Z,17.40
2019-05-03T15:20:21.203Z,17.10
2019-05-03T15:22:51.630Z,16.90
2019-05-03T15:25:22.160Z,16.70
2019-05-03T15:27:52.601Z,16.70
2019-05-03T15:30:23.236Z,16.50
2019-05-03T15:33:00.175Z,16.60
2019-05-03T15:35:26.138Z,16.60
2019-05-03T15:37:56.556Z,16.50
2019-05-03T15:40:27.282Z,16.80
2019-05-03T15:43:07.335Z,17.30
2019-05-03T15:46:02.542Z,17.60
2019-05-03T15:48:37.475Z,17.90
2019-05-03T15:51:07.895Z,18.20
2019-05-03T15:53:38.327Z,18.20
2019-05-03T15:56:08.922Z,18.80
2019-05-03T15:58:39.390Z,19.50
2019-05-03T16:01:10.842Z,20.10
2019-05-03T16:03:41.343Z,20.80
2019-05-03T16:06:11.794Z,21.20
2019-05-03T16:08:42.262Z,21.10
2019-05-03T16:11:14.766Z,20.80
2019-05-03T16:13:45.045Z,20.50
2019-05-03T16:16:15.800Z,19.80
2019-05-03T16:18:46.283Z,19.10
2019-05-03T16:21:17.738Z,18.70
2019-05-03T16:23:48.162Z,18.40
2019-05-03T16:26:18.591Z,18.10
2019-05-03T16:28:55.250Z,17.80
2019-05-03T16:31:26.618Z,17.40
2019-05-03T16:33:57.247Z,16.90
2019-05-03T16:36:27.671Z,16.20
2019-05-03T16:38:57.996Z,15.90
2019-05-03T16:41:28.517Z,15.90
2019-05-03T16:43:58.955Z,16.00
2019-05-03T16:46:29.480Z,16.00
2019-05-03T16:48:59.970Z,15.90
2019-05-03T16:51:30.445Z,15.60
2019-05-03T16:54:00.854Z,15.60
2019-05-03T16:56:31.289Z,15.70
2019-05-03T16:59:01.720Z,15.70
2019-05-03T17:01:32.145Z,15.60
2019-05-03T17:04:21.516Z,15.60
2019-05-03T17:09:45.102Z,15.40
2019-05-03T17:12:21.898Z,15.10
2019-05-03T17:14:54.393Z,15.00
2019-05-03T17:17:25.188Z,15.00
2019-05-03T17:19:55.766Z,15.00
2019-05-03T17:22:26.250Z,14.90
2019-05-03T17:24:56.675Z,14.80
2019-05-03T17:27:27.102Z,14.70
2019-05-03T17:29:58.553Z,14.70
2019-05-03T17:32:29.185Z,14.50
2019-05-03T17:34:59.615Z,14.50
2019-05-03T17:37:30.030Z,14.50
2019-05-03T17:40:15.421Z,14.40
2019-05-03T17:43:10.932Z,14.30
2019-05-03T17:45:45.412Z,14.20
2019-05-03T17:48:15.997Z,14.10
2019-05-03T17:50:46.459Z,13.90
2019-05-03T17:53:29.999Z,13.80
2019-05-03T17:56:12.471Z,13.60
2019-05-03T17:58:49.540Z,13.50
2019-05-03T18:01:44.953Z,13.30
2019-05-03T18:04:25.415Z,13.10
2019-05-03T18:07:15.024Z,13.00
2019-05-03T18:09:45.992Z,12.80
2019-05-03T18:12:16.503Z,12.70
2019-05-03T18:14:46.886Z,12.70
2019-05-03T18:17:17.313Z,12.60
2019-05-03T18:19:47.896Z,12.50
2019-05-03T18:22:18.421Z,12.50
2019-05-03T18:24:48.901Z,12.40
2019-05-03T18:27:19.328Z,12.40
2019-05-03T18:29:50.780Z,12.30
2019-05-03T18:32:21.206Z,12.20
2019-05-03T18:34:51.639Z,12.20
2019-05-03T18:37:24.366Z,12.10
2019-05-03T18:39:56.827Z,12.00
2019-05-03T18:42:34.865Z,11.90
2019-05-03T18:45:14.924Z,11.90
2019-05-03T18:47:45.092Z,11.80
2019-05-03T18:50:16.531Z,11.70
2019-05-03T18:52:47.007Z,11.60
2019-05-03T18:55:17.476Z,11.60
2019-05-03T18:57:48.683Z,11.50
2019-05-03T19:00:21.264Z,11.40
2019-05-03T19:02:51.828Z,11.30
2019-05-03T19:05:24.370Z,11.20
2019-05-03T19:08:16.644Z,11.20
2019-05-03T19:10:51.482Z,11.10
2019-05-03T19:13:35.510Z,11.00
2019-05-03T19:16:19.978Z,10.90
2019-05-03T19:18:50.682Z,10.80
2019-05-03T19:21:21.344Z,10.70
2019-05-03T19:23:52.022Z,10.60
2019-05-03T19:26:22.612Z,10.50
2019-05-03T19:28:54.873Z,10.40
2019-05-03T19:34:03.104Z,10.30
2019-05-03T19:36:34.842Z,10.20
2019-05-03T19:39:07.087Z,10.10
2019-05-03T19:41:37.564Z,10.10
2019-05-03T19:44:08.087Z,10.00
2019-05-03T19:46:38.564Z,9.90
2019-05-03T19:51:38.919Z,9.90
2019-05-03T19:54:09.478Z,9.80
2019-05-03T19:56:39.963Z,9.70
2019-05-03T19:59:12.652Z,9.70
2019-05-03T20:02:00.328Z,9.60
2019-05-03T20:04:57.620Z,9.60
2019-05-03T20:07:42.251Z,9.60
2019-05-03T20:10:14.662Z,9.50
2019-05-03T20:12:45.251Z,9.40
2019-05-03T20:15:15.844Z,9.30
2019-05-03T20:17:56.532Z,9.20
2019-05-03T20:20:19.388Z,9.20
2019-05-03T20:22:49.815Z,9.20
2019-05-03T20:25:20.354Z,9.10
2019-05-03T20:30:20.599Z,9.00
2019-05-03T20:32:51.230Z,9.00
2019-05-03T20:35:21.651Z,8.90
2019-05-03T20:37:52.077Z,8.90
2019-05-03T20:40:22.508Z,8.80
2019-05-03T20:43:20.892Z,8.80
2019-05-03T20:45:59.509Z,8.80
2019-05-03T20:48:29.934Z,8.80
2019-05-03T20:51:00.360Z,8.70
2019-05-03T20:53:31.094Z,8.80
2019-05-03T20:58:31.150Z,8.80
2019-05-03T21:01:02.684Z,8.70
2019-05-03T21:03:33.216Z,8.60
2019-05-03T21:06:05.026Z,8.60
2019-05-03T21:08:48.979Z,8.60
2019-05-03T21:11:07.714Z,8.50
2019-05-03T21:13:42.170Z,8.50
2019-05-03T21:16:32.280Z,8.40
2019-05-03T21:19:08.545Z,8.40
2019-05-03T21:21:44.408Z,8.40
2019-05-03T21:24:24.216Z,8.30
2019-05-03T21:26:55.037Z,8.30
2019-05-03T21:29:25.510Z,8.30
2019-05-03T21:34:25.749Z,8.20
2019-05-03T21:36:56.175Z,8.10
2019-05-03T21:39:26.602Z,8.10
2019-05-03T21:41:57.234Z,8.10
2019-05-03T21:44:34.903Z,8.10
2019-05-03T21:47:15.280Z,8.10
2019-05-03T21:49:46.315Z,8.10
2019-05-03T21:52:16.759Z,8.20
2019-05-03T21:54:47.193Z,8.20
2019-05-03T21:57:17.771Z,8.20
2019-05-03T21:59:49.315Z,8.20
2019-05-03T22:02:21.032Z,8.20
2019-05-03T22:04:51.456Z,8.20
2019-05-03T22:07:22.087Z,8.30
2019-05-03T22:09:54.382Z,8.30
2019-05-03T22:12:24.956Z,8.20
2019-05-03T22:15:02.498Z,8.20
2019-05-03T22:17:50.832Z,8.20
2019-05-03T22:20:30.635Z,8.10
2019-05-03T22:23:15.009Z,8.10
2019-05-03T22:25:45.580Z,8.10
2019-05-03T22:28:16.043Z,8.10
2019-05-03T22:30:46.720Z,8.00
2019-05-03T22:33:17.353Z,8.00
2019-05-03T22:35:47.784Z,7.90
2019-05-03T22:38:18.215Z,7.90
2019-05-03T22:40:48.839Z,7.90
2019-05-03T22:43:20.699Z,7.90
2019-05-03T22:45:51.234Z,7.90
2019-05-03T22:48:22.024Z,7.80
2019-05-03T22:50:52.493Z,7.80
2019-05-03T22:53:23.022Z,7.80
2019-05-03T22:55:54.333Z,7.90
2019-05-03T22:58:25.032Z,7.90
2019-05-03T23:00:55.679Z,7.90
2019-05-03T23:03:27.062Z,7.90
2019-05-03T23:05:59.173Z,7.80
2019-05-03T23:08:30.943Z,7.80
2019-05-03T23:11:01.439Z,7.90
2019-05-03T23:13:32.046Z,7.90
2019-05-03T23:16:02.556Z,8.00
2019-05-03T23:18:34.997Z,8.00
2019-05-03T23:21:15.116Z,8.00
2019-05-03T23:23:49.260Z,8.10
2019-05-03T23:26:19.947Z,8.20
2019-05-03T23:28:50.428Z,8.20
2019-05-03T23:31:21.626Z,8.10
2019-05-03T23:33:54.157Z,8.10
2019-05-03T23:36:33.110Z,8.00
2019-05-03T23:38:57.100Z,8.00
2019-05-03T23:41:28.767Z,8.00
2019-05-03T23:43:59.310Z,8.00
2019-05-03T23:46:35.743Z,8.10
2019-05-03T23:49:06.384Z,8.00
2019-05-03T23:51:50.765Z,8.10
2019-05-03T23:54:21.195Z,8.10
2019-05-03T23:56:51.619Z,8.10
2019-05-03T23:59:22.163Z,8.10
